ftp/pub/mcmurdo/phoenix/solar/2017/07/NZFX.CRREL.SOLAR.2017.07.13.1410.dat

Download

"TOA5","C150","CR1000","43625","CR1000.Std.22","CPU:247411_r6_eppley3.CR1","52881","eppley_data"
"TIMESTAMP","RECORD","PIR_net","Case_Temp_K","PSP_in_Avg","PSP_in_Min","PSP_in_Max","PIR_in_Avg","PIR_in_Min","PIR_in_Max","wd_2minavg","ws_2minavg","AirTC","RH","BP_mbar"
"TS","RN","","","","","","","","","","","Deg C","Percent","Millibar"
"","","Smp","Smp","Avg","Min","Max","Avg","Min","Max","Smp","Smp","Smp","Smp","Smp"
"2017-07-13 14:10:00",80058,"NAN","NAN","NAN","NAN","NAN","NAN","NAN","NAN",226.5,0.777,-36.36,66.75,974
"2017-07-13 14:20:00",80059,"NAN","NAN","NAN","NAN","NAN","NAN","NAN","NAN",211.3,0.447,-34.75,68.91,974
"2017-07-13 14:30:00",80060,"NAN","NAN","NAN","NAN","NAN","NAN","NAN","NAN",195.7,0.586,-36.23,65.48,973
"2017-07-13 14:40:00",80061,"NAN","NAN","NAN","NAN","NAN","NAN","NAN","NAN",248.3,1.197,-36.3,61.91,973
"2017-07-13 14:50:00",80062,"NAN","NAN","NAN","NAN","NAN","NAN","NAN","NAN",236.3,0.777,-35.06,68.86,973
"2017-07-13 15:00:00",80063,"NAN","NAN","NAN","NAN","NAN","NAN","NAN","NAN",236.3,1.041,-34.27,67.97,973
"2017-07-13 15:10:00",80064,"NAN","NAN","NAN","NAN","NAN","NAN","NAN","NAN",236.3,0.706,-34.89,67.34,973
"2017-07-13 15:20:00",80065,"NAN","NAN","NAN","NAN","NAN","NAN","NAN","NAN",236.2,0.323,-33.93,69.02,973
"2017-07-13 15:30:00",80066,"NAN","NAN","NAN","NAN","NAN","NAN","NAN","NAN",190.6,1.358,-34.75,66.59,973
"2017-07-13 15:40:00",80067,"NAN","NAN","NAN","NAN","NAN","NAN","NAN","NAN",203.1,1.465,-37.43,59.55,973
"2017-07-13 15:50:00",80068,"NAN","NAN","NAN","NAN","NAN","NAN","NAN","NAN",188.2,0.809,-38.01,65.86,973
"2017-07-13 16:00:00",80069,"NAN","NAN","NAN","NAN","NAN","NAN","NAN","NAN",55.79,0.207,-39.79,59.85,973
"2017-07-13 16:10:00",80070,"NAN","NAN","NAN","NAN","NAN","NAN","NAN","NAN",49.47,0.499,-39.83,60.44,973
"2017-07-13 16:20:00",80071,"NAN","NAN","NAN","NAN","NAN","NAN","NAN","NAN",68.48,1.498,-39.86,61.44,973
"2017-07-13 16:30:00",80072,"NAN","NAN","NAN","NAN","NAN","NAN","NAN","NAN",63.9,2.438,-39.86,55.85,973
"2017-07-13 16:40:00",80073,"NAN","NAN","NAN","NAN","NAN","NAN","NAN","NAN",61.92,1.084,-37.77,66.22,973
"2017-07-13 16:50:00",80074,"NAN","NAN","NAN","NAN","NAN","NAN","NAN","NAN",35.45,0.382,-37.87,63.59,973
"2017-07-13 17:00:00",80075,"NAN","NAN","NAN","NAN","NAN","NAN","NAN","NAN",50.33,2.591,-39.86,59.06,973
"2017-07-13 17:10:00",80076,"NAN","NAN","NAN","NAN","NAN","NAN","NAN","NAN",64.1,2.329,-39.86,58.07,973
"2017-07-13 17:20:00",80077,"NAN","NAN","NAN","NAN","NAN","NAN","NAN","NAN",70.37,2.117,-39.86,55.74,973
"2017-07-13 17:30:00",80078,"NAN","NAN","NAN","NAN","NAN","NAN","NAN","NAN",34.73,2.065,-39.86,58.12,973
"2017-07-13 17:40:00",80079,"NAN","NAN","NAN","NAN","NAN","NAN","NAN","NAN",24.59,1.73,-39.86,57.33,973
"2017-07-13 17:50:00",80080,"NAN","NAN","NAN","NAN","NAN","NAN","NAN","NAN",51.1,1.955,-39.86,57.1,973
"2017-07-13 18:00:00",80081,"NAN","NAN","NAN","NAN","NAN","NAN","NAN","NAN",53.69,2.238,-39.86,55.8,973